sensor_id;sensor_type;location;lat;lon;timestamp;P1;P2;P0
55754;PMS5003;41674;52.290;-1.474;2023-04-16T00:01:17;27;26;
55754;PMS5003;41674;52.290;-1.474;2023-04-16T00:03:46;22;22;
55754;PMS5003;41674;52.290;-1.474;2023-04-16T00:06:15;27;26;
55754;PMS5003;41674;52.290;-1.474;2023-04-16T00:08:45;23;22;
55754;PMS5003;41674;52.290;-1.474;2023-04-16T00:11:15;24;21;
55754;PMS5003;41674;52.290;-1.474;2023-04-16T00:13:44;25;22;
55754;PMS5003;41674;52.290;-1.474;2023-04-16T00:16:14;21;21;
55754;PMS5003;41674;52.290;-1.474;2023-04-16T00:18:44;27;23;
55754;PMS5003;41674;52.290;-1.474;2023-04-16T00:21:13;25;22;
55754;PMS5003;41674;52.290;-1.474;2023-04-16T00:23:42;24;22;
55754;PMS5003;41674;52.290;-1.474;2023-04-16T00:26:12;23;21;
55754;PMS5003;41674;52.290;-1.474;2023-04-16T00:28:41;27;23;
55754;PMS5003;41674;52.290;-1.474;2023-04-16T00:31:10;25;23;
55754;PMS5003;41674;52.290;-1.474;2023-04-16T00:33:39;23;23;
55754;PMS5003;41674;52.290;-1.474;2023-04-16T00:36:09;23;20;
55754;PMS5003;41674;52.290;-1.474;2023-04-16T00:38:38;23;20;
55754;PMS5003;41674;52.290;-1.474;2023-04-16T00:41:08;20;20;
55754;PMS5003;41674;52.290;-1.474;2023-04-16T00:43:37;22;21;
55754;PMS5003;41674;52.290;-1.474;2023-04-16T00:46:07;20;19;
55754;PMS5003;41674;52.290;-1.474;2023-04-16T00:48:37;22;22;
55754;PMS5003;41674;52.290;-1.474;2023-04-16T00:51:06;23;20;
55754;PMS5003;41674;52.290;-1.474;2023-04-16T00:53:35;24;24;
55754;PMS5003;41674;52.290;-1.474;2023-04-16T00:56:05;22;22;
55754;PMS5003;41674;52.290;-1.474;2023-04-16T00:58:33;23;20;
55754;PMS5003;41674;52.290;-1.474;2023-04-16T01:01:03;26;22;
55754;PMS5003;41674;52.290;-1.474;2023-04-16T01:03:35;21;21;
55754;PMS5003;41674;52.290;-1.474;2023-04-16T01:06:02;20;18;
55754;PMS5003;41674;52.290;-1.474;2023-04-16T01:08:31;26;23;
55754;PMS5003;41674;52.290;-1.474;2023-04-16T01:11:00;20;18;
55754;PMS5003;41674;52.290;-1.474;2023-04-16T01:13:30;19;18;
55754;PMS5003;41674;52.290;-1.474;2023-04-16T01:15:59;19;17;
55754;PMS5003;41674;52.290;-1.474;2023-04-16T01:18:28;20;20;
55754;PMS5003;41674;52.290;-1.474;2023-04-16T01:20:58;19;19;
55754;PMS5003;41674;52.290;-1.474;2023-04-16T01:23:28;19;19;
55754;PMS5003;41674;52.290;-1.474;2023-04-16T01:25:57;25;24;
55754;PMS5003;41674;52.290;-1.474;2023-04-16T01:28:27;20;18;
55754;PMS5003;41674;52.290;-1.474;2023-04-16T01:30:56;17;17;
55754;PMS5003;41674;52.290;-1.474;2023-04-16T01:33:26;18;17;
55754;PMS5003;41674;52.290;-1.474;2023-04-16T01:35:55;18;18;
55754;PMS5003;41674;52.290;-1.474;2023-04-16T01:38:24;18;17;
55754;PMS5003;41674;52.290;-1.474;2023-04-16T01:40:54;23;21;
55754;PMS5003;41674;52.290;-1.474;2023-04-16T01:43:23;21;18;
55754;PMS5003;41674;52.290;-1.474;2023-04-16T01:45:53;22;21;
55754;PMS5003;41674;52.290;-1.474;2023-04-16T01:48:22;21;20;
55754;PMS5003;41674;52.290;-1.474;2023-04-16T01:50:51;21;20;
55754;PMS5003;41674;52.290;-1.474;2023-04-16T01:53:21;21;20;
55754;PMS5003;41674;52.290;-1.474;2023-04-16T01:55:50;21;21;
55754;PMS5003;41674;52.290;-1.474;2023-04-16T01:58:20;18;18;
55754;PMS5003;41674;52.290;-1.474;2023-04-16T02:00:49;22;20;
55754;PMS5003;41674;52.290;-1.474;2023-04-16T02:03:18;24;23;
55754;PMS5003;41674;52.290;-1.474;2023-04-16T02:05:48;20;20;
55754;PMS5003;41674;52.290;-1.474;2023-04-16T02:08:17;23;21;
55754;PMS5003;41674;52.290;-1.474;2023-04-16T02:10:46;23;21;
55754;PMS5003;41674;52.290;-1.474;2023-04-16T02:13:16;20;20;
55754;PMS5003;41674;52.290;-1.474;2023-04-16T02:15:46;25;21;
55754;PMS5003;41674;52.290;-1.474;2023-04-16T02:18:15;29;28;
55754;PMS5003;41674;52.290;-1.474;2023-04-16T02:20:45;28;27;
55754;PMS5003;41674;52.290;-1.474;2023-04-16T02:23:13;24;24;
55754;PMS5003;41674;52.290;-1.474;2023-04-16T02:25:43;29;25;
55754;PMS5003;41674;52.290;-1.474;2023-04-16T02:28:13;30;27;
55754;PMS5003;41674;52.290;-1.474;2023-04-16T02:30:42;29;27;
55754;PMS5003;41674;52.290;-1.474;2023-04-16T02:33:11;29;28;
55754;PMS5003;41674;52.290;-1.474;2023-04-16T02:35:41;29;28;
55754;PMS5003;41674;52.290;-1.474;2023-04-16T02:38:10;26;25;
55754;PMS5003;41674;52.290;-1.474;2023-04-16T02:40:39;28;24;
55754;PMS5003;41674;52.290;-1.474;2023-04-16T02:43:09;28;26;
55754;PMS5003;41674;52.290;-1.474;2023-04-16T02:45:38;27;24;
55754;PMS5003;41674;52.290;-1.474;2023-04-16T02:48:08;30;24;
55754;PMS5003;41674;52.290;-1.474;2023-04-16T02:50:37;26;24;
55754;PMS5003;41674;52.290;-1.474;2023-04-16T02:53:07;28;26;
55754;PMS5003;41674;52.290;-1.474;2023-04-16T02:55:36;24;24;
55754;PMS5003;41674;52.290;-1.474;2023-04-16T02:58:06;27;26;
55754;PMS5003;41674;52.290;-1.474;2023-04-16T03:00:36;28;26;
55754;PMS5003;41674;52.290;-1.474;2023-04-16T03:03:06;25;24;
55754;PMS5003;41674;52.290;-1.474;2023-04-16T03:05:36;22;22;
55754;PMS5003;41674;52.290;-1.474;2023-04-16T03:08:05;27;25;
55754;PMS5003;41674;52.290;-1.474;2023-04-16T03:10:34;24;22;
55754;PMS5003;41674;52.290;-1.474;2023-04-16T03:13:04;20;19;
55754;PMS5003;41674;52.290;-1.474;2023-04-16T03:15:33;25;23;
55754;PMS5003;41674;52.290;-1.474;2023-04-16T03:18:07;22;22;
55754;PMS5003;41674;52.290;-1.474;2023-04-16T03:20:31;26;26;
55754;PMS5003;41674;52.290;-1.474;2023-04-16T03:23:00;20;20;
55754;PMS5003;41674;52.290;-1.474;2023-04-16T03:25:30;25;24;
55754;PMS5003;41674;52.290;-1.474;2023-04-16T03:27:59;22;22;
55754;PMS5003;41674;52.290;-1.474;2023-04-16T03:30:29;23;20;
55754;PMS5003;41674;52.290;-1.474;2023-04-16T03:32:58;23;20;
55754;PMS5003;41674;52.290;-1.474;2023-04-16T03:35:27;20;19;
55754;PMS5003;41674;52.290;-1.474;2023-04-16T03:37:57;21;20;
55754;PMS5003;41674;52.290;-1.474;2023-04-16T03:40:26;23;21;
55754;PMS5003;41674;52.290;-1.474;2023-04-16T03:42:55;22;21;
55754;PMS5003;41674;52.290;-1.474;2023-04-16T03:45:25;22;22;
55754;PMS5003;41674;52.290;-1.474;2023-04-16T03:47:55;25;22;
55754;PMS5003;41674;52.290;-1.474;2023-04-16T03:50:24;22;20;
55754;PMS5003;41674;52.290;-1.474;2023-04-16T03:52:53;24;23;
55754;PMS5003;41674;52.290;-1.474;2023-04-16T03:55:22;27;24;
55754;PMS5003;41674;52.290;-1.474;2023-04-16T03:57:52;23;21;
55754;PMS5003;41674;52.290;-1.474;2023-04-16T04:00:21;22;22;
55754;PMS5003;41674;52.290;-1.474;2023-04-16T04:02:51;21;20;
55754;PMS5003;41674;52.290;-1.474;2023-04-16T04:05:20;24;24;
55754;PMS5003;41674;52.290;-1.474;2023-04-16T04:07:50;20;20;
55754;PMS5003;41674;52.290;-1.474;2023-04-16T04:10:19;20;19;
55754;PMS5003;41674;52.290;-1.474;2023-04-16T04:12:49;25;19;
55754;PMS5003;41674;52.290;-1.474;2023-04-16T04:15:18;25;21;
55754;PMS5003;41674;52.290;-1.474;2023-04-16T04:17:48;25;21;
55754;PMS5003;41674;52.290;-1.474;2023-04-16T04:20:17;24;22;
55754;PMS5003;41674;52.290;-1.474;2023-04-16T04:22:46;22;22;
55754;PMS5003;41674;52.290;-1.474;2023-04-16T04:25:15;25;22;
55754;PMS5003;41674;52.290;-1.474;2023-04-16T04:27:44;26;24;
55754;PMS5003;41674;52.290;-1.474;2023-04-16T04:30:14;23;22;
55754;PMS5003;41674;52.290;-1.474;2023-04-16T04:32:43;24;24;
55754;PMS5003;41674;52.290;-1.474;2023-04-16T04:35:13;26;25;
55754;PMS5003;41674;52.290;-1.474;2023-04-16T04:37:42;25;24;
55754;PMS5003;41674;52.290;-1.474;2023-04-16T04:40:11;26;25;
55754;PMS5003;41674;52.290;-1.474;2023-04-16T04:42:41;30;26;
55754;PMS5003;41674;52.290;-1.474;2023-04-16T04:45:10;27;25;
55754;PMS5003;41674;52.290;-1.474;2023-04-16T04:47:39;30;28;
55754;PMS5003;41674;52.290;-1.474;2023-04-16T04:50:09;28;28;
55754;PMS5003;41674;52.290;-1.474;2023-04-16T04:52:38;30;29;
55754;PMS5003;41674;52.290;-1.474;2023-04-16T04:55:08;27;25;
55754;PMS5003;41674;52.290;-1.474;2023-04-16T04:57:36;33;28;
55754;PMS5003;41674;52.290;-1.474;2023-04-16T05:00:06;24;24;
55754;PMS5003;41674;52.290;-1.474;2023-04-16T05:02:36;29;28;
55754;PMS5003;41674;52.290;-1.474;2023-04-16T05:05:06;28;26;
55754;PMS5003;41674;52.290;-1.474;2023-04-16T05:07:35;29;25;
55754;PMS5003;41674;52.290;-1.474;2023-04-16T05:10:05;28;24;
55754;PMS5003;41674;52.290;-1.474;2023-04-16T05:12:34;27;26;
55754;PMS5003;41674;52.290;-1.474;2023-04-16T05:15:04;26;26;
55754;PMS5003;41674;52.290;-1.474;2023-04-16T05:17:33;23;23;
55754;PMS5003;41674;52.290;-1.474;2023-04-16T05:20:03;27;25;
55754;PMS5003;41674;52.290;-1.474;2023-04-16T05:22:32;25;23;
55754;PMS5003;41674;52.290;-1.474;2023-04-16T05:25:02;27;27;
55754;PMS5003;41674;52.290;-1.474;2023-04-16T05:27:31;29;25;
55754;PMS5003;41674;52.290;-1.474;2023-04-16T05:30:00;23;23;
55754;PMS5003;41674;52.290;-1.474;2023-04-16T05:32:30;27;24;
55754;PMS5003;41674;52.290;-1.474;2023-04-16T05:34:59;25;22;
55754;PMS5003;41674;52.290;-1.474;2023-04-16T05:37:29;24;22;
55754;PMS5003;41674;52.290;-1.474;2023-04-16T05:39:58;23;22;
55754;PMS5003;41674;52.290;-1.474;2023-04-16T05:42:28;23;23;
55754;PMS5003;41674;52.290;-1.474;2023-04-16T05:44:57;28;25;
55754;PMS5003;41674;52.290;-1.474;2023-04-16T05:47:27;23;22;
55754;PMS5003;41674;52.290;-1.474;2023-04-16T05:49:56;25;25;
55754;PMS5003;41674;52.290;-1.474;2023-04-16T05:52:25;22;20;
55754;PMS5003;41674;52.290;-1.474;2023-04-16T05:54:54;27;25;
55754;PMS5003;41674;52.290;-1.474;2023-04-16T05:57:24;20;19;
55754;PMS5003;41674;52.290;-1.474;2023-04-16T05:59:53;21;19;
55754;PMS5003;41674;52.290;-1.474;2023-04-16T06:02:23;26;25;
55754;PMS5003;41674;52.290;-1.474;2023-04-16T06:04:53;23;21;
55754;PMS5003;41674;52.290;-1.474;2023-04-16T06:07:22;22;20;
55754;PMS5003;41674;52.290;-1.474;2023-04-16T06:09:51;21;21;
55754;PMS5003;41674;52.290;-1.474;2023-04-16T06:12:21;18;17;
55754;PMS5003;41674;52.290;-1.474;2023-04-16T06:14:50;20;17;
55754;PMS5003;41674;52.290;-1.474;2023-04-16T06:17:20;21;21;
55754;PMS5003;41674;52.290;-1.474;2023-04-16T06:19:49;18;15;
55754;PMS5003;41674;52.290;-1.474;2023-04-16T06:22:18;20;20;
55754;PMS5003;41674;52.290;-1.474;2023-04-16T06:24:48;22;20;
55754;PMS5003;41674;52.290;-1.474;2023-04-16T06:27:18;21;20;
55754;PMS5003;41674;52.290;-1.474;2023-04-16T06:29:47;21;20;
55754;PMS5003;41674;52.290;-1.474;2023-04-16T06:32:16;22;21;
55754;PMS5003;41674;52.290;-1.474;2023-04-16T06:34:46;22;21;
55754;PMS5003;41674;52.290;-1.474;2023-04-16T06:39:44;22;19;
55754;PMS5003;41674;52.290;-1.474;2023-04-16T06:42:14;16;16;
55754;PMS5003;41674;52.290;-1.474;2023-04-16T06:44:43;20;19;
55754;PMS5003;41674;52.290;-1.474;2023-04-16T06:47:12;20;20;
55754;PMS5003;41674;52.290;-1.474;2023-04-16T06:49:42;20;17;
55754;PMS5003;41674;52.290;-1.474;2023-04-16T06:52:11;19;18;
55754;PMS5003;41674;52.290;-1.474;2023-04-16T06:54:41;21;20;
55754;PMS5003;41674;52.290;-1.474;2023-04-16T06:57:10;19;19;
55754;PMS5003;41674;52.290;-1.474;2023-04-16T06:59:39;24;22;
55754;PMS5003;41674;52.290;-1.474;2023-04-16T07:02:09;25;25;
55754;PMS5003;41674;52.290;-1.474;2023-04-16T07:04:38;24;23;
55754;PMS5003;41674;52.290;-1.474;2023-04-16T07:07:08;16;16;
55754;PMS5003;41674;52.290;-1.474;2023-04-16T07:09:37;20;19;
55754;PMS5003;41674;52.290;-1.474;2023-04-16T07:12:06;23;20;
55754;PMS5003;41674;52.290;-1.474;2023-04-16T07:14:36;23;22;
55754;PMS5003;41674;52.290;-1.474;2023-04-16T07:17:04;25;21;
55754;PMS5003;41674;52.290;-1.474;2023-04-16T07:19:34;21;21;
55754;PMS5003;41674;52.290;-1.474;2023-04-16T07:22:03;20;19;
55754;PMS5003;41674;52.290;-1.474;2023-04-16T07:24:33;21;21;
55754;PMS5003;41674;52.290;-1.474;2023-04-16T07:27:02;22;16;
55754;PMS5003;41674;52.290;-1.474;2023-04-16T07:29:31;22;21;
55754;PMS5003;41674;52.290;-1.474;2023-04-16T07:32:00;27;21;
55754;PMS5003;41674;52.290;-1.474;2023-04-16T07:34:30;23;21;
55754;PMS5003;41674;52.290;-1.474;2023-04-16T07:36:59;22;21;
55754;PMS5003;41674;52.290;-1.474;2023-04-16T07:39:28;22;21;
55754;PMS5003;41674;52.290;-1.474;2023-04-16T07:41:58;21;19;
55754;PMS5003;41674;52.290;-1.474;2023-04-16T07:44:27;21;21;
55754;PMS5003;41674;52.290;-1.474;2023-04-16T07:46:57;25;22;
55754;PMS5003;41674;52.290;-1.474;2023-04-16T07:49:27;18;18;
55754;PMS5003;41674;52.290;-1.474;2023-04-16T07:51:56;21;18;
55754;PMS5003;41674;52.290;-1.474;2023-04-16T07:54:25;18;15;
55754;PMS5003;41674;52.290;-1.474;2023-04-16T07:56:55;20;17;
55754;PMS5003;41674;52.290;-1.474;2023-04-16T07:59:24;22;19;
55754;PMS5003;41674;52.290;-1.474;2023-04-16T08:01:53;16;15;
55754;PMS5003;41674;52.290;-1.474;2023-04-16T08:04:22;14;14;
55754;PMS5003;41674;52.290;-1.474;2023-04-16T08:06:52;16;16;
55754;PMS5003;41674;52.290;-1.474;2023-04-16T08:09:22;21;18;
55754;PMS5003;41674;52.290;-1.474;2023-04-16T08:11:51;17;14;
55754;PMS5003;41674;52.290;-1.474;2023-04-16T08:14:20;21;17;
55754;PMS5003;41674;52.290;-1.474;2023-04-16T08:16:49;16;15;
55754;PMS5003;41674;52.290;-1.474;2023-04-16T08:19:19;17;15;
55754;PMS5003;41674;52.290;-1.474;2023-04-16T08:21:48;18;14;
55754;PMS5003;41674;52.290;-1.474;2023-04-16T08:24:18;14;14;
55754;PMS5003;41674;52.290;-1.474;2023-04-16T08:26:47;12;11;
55754;PMS5003;41674;52.290;-1.474;2023-04-16T08:29:17;15;15;
55754;PMS5003;41674;52.290;-1.474;2023-04-16T08:31:47;12;11;
55754;PMS5003;41674;52.290;-1.474;2023-04-16T08:34:21;14;14;
55754;PMS5003;41674;52.290;-1.474;2023-04-16T08:36:45;8;6;
55754;PMS5003;41674;52.290;-1.474;2023-04-16T08:39:15;7;7;
55754;PMS5003;41674;52.290;-1.474;2023-04-16T08:41:45;6;5;
55754;PMS5003;41674;52.290;-1.474;2023-04-16T08:44:16;5;5;
55754;PMS5003;41674;52.290;-1.474;2023-04-16T08:46:44;5;5;
55754;PMS5003;41674;52.290;-1.474;2023-04-16T08:51:44;3;3;
55754;PMS5003;41674;52.290;-1.474;2023-04-16T08:54:13;2;2;
55754;PMS5003;41674;52.290;-1.474;2023-04-16T08:56:42;3;3;
55754;PMS5003;41674;52.290;-1.474;2023-04-16T08:59:12;4;3;
55754;PMS5003;41674;52.290;-1.474;2023-04-16T09:01:41;4;4;
55754;PMS5003;41674;52.290;-1.474;2023-04-16T09:04:11;6;6;
55754;PMS5003;41674;52.290;-1.474;2023-04-16T09:06:40;6;3;
55754;PMS5003;41674;52.290;-1.474;2023-04-16T09:09:11;3;2;
55754;PMS5003;41674;52.290;-1.474;2023-04-16T09:11:40;8;6;
55754;PMS5003;41674;52.290;-1.474;2023-04-16T09:14:09;9;9;
55754;PMS5003;41674;52.290;-1.474;2023-04-16T09:16:39;8;7;
55754;PMS5003;41674;52.290;-1.474;2023-04-16T09:19:08;5;4;
55754;PMS5003;41674;52.290;-1.474;2023-04-16T09:21:38;5;5;
55754;PMS5003;41674;52.290;-1.474;2023-04-16T09:24:08;4;4;
55754;PMS5003;41674;52.290;-1.474;2023-04-16T09:26:37;1;1;
55754;PMS5003;41674;52.290;-1.474;2023-04-16T09:29:07;3;3;
55754;PMS5003;41674;52.290;-1.474;2023-04-16T09:31:36;3;3;
55754;PMS5003;41674;52.290;-1.474;2023-04-16T09:34:07;2;2;
55754;PMS5003;41674;52.290;-1.474;2023-04-16T09:36:36;6;5;
55754;PMS5003;41674;52.290;-1.474;2023-04-16T09:39:05;4;4;
55754;PMS5003;41674;52.290;-1.474;2023-04-16T09:41:35;4;4;
55754;PMS5003;41674;52.290;-1.474;2023-04-16T09:44:04;3;3;
55754;PMS5003;41674;52.290;-1.474;2023-04-16T09:46:34;6;5;
55754;PMS5003;41674;52.290;-1.474;2023-04-16T09:49:04;5;5;
55754;PMS5003;41674;52.290;-1.474;2023-04-16T09:51:36;3;3;
55754;PMS5003;41674;52.290;-1.474;2023-04-16T09:54:03;5;5;
55754;PMS5003;41674;52.290;-1.474;2023-04-16T09:56:33;3;3;
55754;PMS5003;41674;52.290;-1.474;2023-04-16T09:59:02;4;4;
55754;PMS5003;41674;52.290;-1.474;2023-04-16T10:01:32;5;3;
55754;PMS5003;41674;52.290;-1.474;2023-04-16T10:04:02;4;4;
55754;PMS5003;41674;52.290;-1.474;2023-04-16T10:06:31;4;3;
55754;PMS5003;41674;52.290;-1.474;2023-04-16T10:09:01;4;2;
55754;PMS5003;41674;52.290;-1.474;2023-04-16T10:11:30;2;2;
55754;PMS5003;41674;52.290;-1.474;2023-04-16T10:14:00;5;3;
55754;PMS5003;41674;52.290;-1.474;2023-04-16T10:16:29;1;1;
55754;PMS5003;41674;52.290;-1.474;2023-04-16T10:18:59;2;1;
55754;PMS5003;41674;52.290;-1.474;2023-04-16T10:21:28;2;2;
55754;PMS5003;41674;52.290;-1.474;2023-04-16T10:23:58;3;3;
55754;PMS5003;41674;52.290;-1.474;2023-04-16T10:26:28;1;1;
55754;PMS5003;41674;52.290;-1.474;2023-04-16T10:28:57;1;1;
55754;PMS5003;41674;52.290;-1.474;2023-04-16T10:31:27;2;2;
55754;PMS5003;41674;52.290;-1.474;2023-04-16T10:33:56;2;1;
55754;PMS5003;41674;52.290;-1.474;2023-04-16T10:36:26;1;1;
55754;PMS5003;41674;52.290;-1.474;2023-04-16T10:38:56;1;0;
55754;PMS5003;41674;52.290;-1.474;2023-04-16T10:41:25;1;1;
55754;PMS5003;41674;52.290;-1.474;2023-04-16T10:46:25;0;0;
55754;PMS5003;41674;52.290;-1.474;2023-04-16T10:48:55;0;0;
55754;PMS5003;41674;52.290;-1.474;2023-04-16T10:51:26;0;0;
55754;PMS5003;41674;52.290;-1.474;2023-04-16T10:53:53;0;0;
55754;PMS5003;41674;52.290;-1.474;2023-04-16T10:56:23;2;2;
55754;PMS5003;41674;52.290;-1.474;2023-04-16T10:58:53;1;1;
55754;PMS5003;41674;52.290;-1.474;2023-04-16T11:01:28;2;2;
55754;PMS5003;41674;52.290;-1.474;2023-04-16T11:03:51;0;0;
55754;PMS5003;41674;52.290;-1.474;2023-04-16T11:06:23;2;2;
55754;PMS5003;41674;52.290;-1.474;2023-04-16T11:08:51;2;2;
55754;PMS5003;41674;52.290;-1.474;2023-04-16T11:11:20;2;2;
55754;PMS5003;41674;52.290;-1.474;2023-04-16T11:13:53;1;1;
55754;PMS5003;41674;52.290;-1.474;2023-04-16T11:16:19;3;2;
55754;PMS5003;41674;52.290;-1.474;2023-04-16T11:18:49;5;2;
55754;PMS5003;41674;52.290;-1.474;2023-04-16T11:21:18;0;0;
55754;PMS5003;41674;52.290;-1.474;2023-04-16T11:23:49;2;2;
55754;PMS5003;41674;52.290;-1.474;2023-04-16T11:26:20;2;2;
55754;PMS5003;41674;52.290;-1.474;2023-04-16T11:28:47;1;1;
55754;PMS5003;41674;52.290;-1.474;2023-04-16T11:31:17;5;4;
55754;PMS5003;41674;52.290;-1.474;2023-04-16T11:33:46;3;3;
55754;PMS5003;41674;52.290;-1.474;2023-04-16T11:36:16;2;2;
55754;PMS5003;41674;52.290;-1.474;2023-04-16T11:38:45;3;3;
55754;PMS5003;41674;52.290;-1.474;2023-04-16T11:41:19;3;1;
55754;PMS5003;41674;52.290;-1.474;2023-04-16T11:43:45;2;2;
55754;PMS5003;41674;52.290;-1.474;2023-04-16T11:46:14;3;3;
55754;PMS5003;41674;52.290;-1.474;2023-04-16T11:48:45;1;1;
55754;PMS5003;41674;52.290;-1.474;2023-04-16T11:51:13;4;3;
55754;PMS5003;41674;52.290;-1.474;2023-04-16T11:53:45;4;4;
55754;PMS5003;41674;52.290;-1.474;2023-04-16T11:56:13;5;3;
55754;PMS5003;41674;52.290;-1.474;2023-04-16T11:58:42;3;3;
55754;PMS5003;41674;52.290;-1.474;2023-04-16T12:01:13;4;3;
55754;PMS5003;41674;52.290;-1.474;2023-04-16T12:03:41;3;2;
55754;PMS5003;41674;52.290;-1.474;2023-04-16T12:06:11;3;3;
55754;PMS5003;41674;52.290;-1.474;2023-04-16T12:08:41;1;1;
55754;PMS5003;41674;52.290;-1.474;2023-04-16T12:11:10;2;2;
55754;PMS5003;41674;52.290;-1.474;2023-04-16T12:13:39;1;1;
55754;PMS5003;41674;52.290;-1.474;2023-04-16T12:18:44;2;2;
55754;PMS5003;41674;52.290;-1.474;2023-04-16T12:21:09;2;2;
55754;PMS5003;41674;52.290;-1.474;2023-04-16T12:23:38;2;2;
55754;PMS5003;41674;52.290;-1.474;2023-04-16T12:26:07;2;2;
55754;PMS5003;41674;52.290;-1.474;2023-04-16T12:28:37;2;2;
55754;PMS5003;41674;52.290;-1.474;2023-04-16T12:31:07;2;2;
55754;PMS5003;41674;52.290;-1.474;2023-04-16T12:33:36;1;1;
55754;PMS5003;41674;52.290;-1.474;2023-04-16T12:38:35;3;3;
55754;PMS5003;41674;52.290;-1.474;2023-04-16T12:41:05;5;3;
55754;PMS5003;41674;52.290;-1.474;2023-04-16T12:43:35;4;3;
55754;PMS5003;41674;52.290;-1.474;2023-04-16T12:46:04;2;2;
55754;PMS5003;41674;52.290;-1.474;2023-04-16T12:48:34;7;5;
55754;PMS5003;41674;52.290;-1.474;2023-04-16T12:51:03;3;2;
55754;PMS5003;41674;52.290;-1.474;2023-04-16T12:53:33;3;3;
55754;PMS5003;41674;52.290;-1.474;2023-04-16T12:56:03;2;2;
55754;PMS5003;41674;52.290;-1.474;2023-04-16T12:58:32;3;3;
55754;PMS5003;41674;52.290;-1.474;2023-04-16T13:01:02;1;1;
55754;PMS5003;41674;52.290;-1.474;2023-04-16T13:03:31;2;1;
55754;PMS5003;41674;52.290;-1.474;2023-04-16T13:06:01;3;1;
55754;PMS5003;41674;52.290;-1.474;2023-04-16T13:08:30;3;3;
55754;PMS5003;41674;52.290;-1.474;2023-04-16T13:11:00;4;3;
55754;PMS5003;41674;52.290;-1.474;2023-04-16T13:13:29;1;1;
55754;PMS5003;41674;52.290;-1.474;2023-04-16T13:15:59;4;2;
55754;PMS5003;41674;52.290;-1.474;2023-04-16T13:18:29;0;0;
55754;PMS5003;41674;52.290;-1.474;2023-04-16T13:21:00;6;6;
55754;PMS5003;41674;52.290;-1.474;2023-04-16T13:23:28;1;1;
55754;PMS5003;41674;52.290;-1.474;2023-04-16T13:25:57;3;1;
55754;PMS5003;41674;52.290;-1.474;2023-04-16T13:28:27;1;1;
55754;PMS5003;41674;52.290;-1.474;2023-04-16T13:30:56;1;1;
55754;PMS5003;41674;52.290;-1.474;2023-04-16T13:33:26;3;2;
55754;PMS5003;41674;52.290;-1.474;2023-04-16T13:35:55;1;1;
55754;PMS5003;41674;52.290;-1.474;2023-04-16T13:38:25;1;1;
55754;PMS5003;41674;52.290;-1.474;2023-04-16T13:40:55;2;2;
55754;PMS5003;41674;52.290;-1.474;2023-04-16T13:43:24;2;2;
55754;PMS5003;41674;52.290;-1.474;2023-04-16T13:45:54;4;2;
55754;PMS5003;41674;52.290;-1.474;2023-04-16T13:48:23;3;3;
55754;PMS5003;41674;52.290;-1.474;2023-04-16T13:50:53;2;2;
55754;PMS5003;41674;52.290;-1.474;2023-04-16T13:53:22;3;3;
55754;PMS5003;41674;52.290;-1.474;2023-04-16T13:55:52;3;3;
55754;PMS5003;41674;52.290;-1.474;2023-04-16T13:58:21;2;2;
55754;PMS5003;41674;52.290;-1.474;2023-04-16T14:00:51;2;2;
55754;PMS5003;41674;52.290;-1.474;2023-04-16T14:03:21;3;3;
55754;PMS5003;41674;52.290;-1.474;2023-04-16T14:05:50;2;2;
55754;PMS5003;41674;52.290;-1.474;2023-04-16T14:08:20;2;2;
55754;PMS5003;41674;52.290;-1.474;2023-04-16T14:10:49;3;1;
55754;PMS5003;41674;52.290;-1.474;2023-04-16T14:13:19;2;2;
55754;PMS5003;41674;52.290;-1.474;2023-04-16T14:15:49;5;4;
55754;PMS5003;41674;52.290;-1.474;2023-04-16T14:18:18;1;1;
55754;PMS5003;41674;52.290;-1.474;2023-04-16T14:20:48;4;3;
55754;PMS5003;41674;52.290;-1.474;2023-04-16T14:23:17;2;2;
55754;PMS5003;41674;52.290;-1.474;2023-04-16T14:25:47;3;2;
55754;PMS5003;41674;52.290;-1.474;2023-04-16T14:28:17;6;4;
55754;PMS5003;41674;52.290;-1.474;2023-04-16T14:30:46;5;3;
55754;PMS5003;41674;52.290;-1.474;2023-04-16T14:33:15;4;3;
55754;PMS5003;41674;52.290;-1.474;2023-04-16T14:35:45;1;1;
55754;PMS5003;41674;52.290;-1.474;2023-04-16T14:38:14;4;4;
55754;PMS5003;41674;52.290;-1.474;2023-04-16T14:40:44;4;4;
55754;PMS5003;41674;52.290;-1.474;2023-04-16T14:43:13;3;3;
55754;PMS5003;41674;52.290;-1.474;2023-04-16T14:45:43;6;4;
55754;PMS5003;41674;52.290;-1.474;2023-04-16T14:48:13;4;4;
55754;PMS5003;41674;52.290;-1.474;2023-04-16T14:50:42;3;3;
55754;PMS5003;41674;52.290;-1.474;2023-04-16T14:53:12;3;3;
55754;PMS5003;41674;52.290;-1.474;2023-04-16T14:55:41;3;3;
55754;PMS5003;41674;52.290;-1.474;2023-04-16T14:58:11;2;2;
55754;PMS5003;41674;52.290;-1.474;2023-04-16T15:00:41;3;2;
55754;PMS5003;41674;52.290;-1.474;2023-04-16T15:03:10;2;2;
55754;PMS5003;41674;52.290;-1.474;2023-04-16T15:05:40;2;2;
55754;PMS5003;41674;52.290;-1.474;2023-04-16T15:08:09;5;4;
55754;PMS5003;41674;52.290;-1.474;2023-04-16T15:10:39;6;6;
55754;PMS5003;41674;52.290;-1.474;2023-04-16T15:13:09;5;4;
55754;PMS5003;41674;52.290;-1.474;2023-04-16T15:15:44;4;4;
55754;PMS5003;41674;52.290;-1.474;2023-04-16T15:18:09;3;3;
55754;PMS5003;41674;52.290;-1.474;2023-04-16T15:23:12;5;4;
55754;PMS5003;41674;52.290;-1.474;2023-04-16T15:25:39;2;1;
55754;PMS5003;41674;52.290;-1.474;2023-04-16T15:28:06;5;5;
55754;PMS5003;41674;52.290;-1.474;2023-04-16T15:30:36;4;3;
55754;PMS5003;41674;52.290;-1.474;2023-04-16T15:33:05;4;4;
55754;PMS5003;41674;52.290;-1.474;2023-04-16T15:35:35;4;4;
55754;PMS5003;41674;52.290;-1.474;2023-04-16T15:38:04;5;4;
55754;PMS5003;41674;52.290;-1.474;2023-04-16T15:40:34;3;3;
55754;PMS5003;41674;52.290;-1.474;2023-04-16T15:43:04;4;4;
55754;PMS5003;41674;52.290;-1.474;2023-04-16T15:45:33;2;2;
55754;PMS5003;41674;52.290;-1.474;2023-04-16T15:48:05;4;4;
55754;PMS5003;41674;52.290;-1.474;2023-04-16T15:50:32;4;3;
55754;PMS5003;41674;52.290;-1.474;2023-04-16T15:53:02;2;2;
55754;PMS5003;41674;52.290;-1.474;2023-04-16T15:55:31;2;2;
55754;PMS5003;41674;52.290;-1.474;2023-04-16T16:00:38;3;3;
55754;PMS5003;41674;52.290;-1.474;2023-04-16T16:05:39;2;2;
55754;PMS5003;41674;52.290;-1.474;2023-04-16T16:08:02;2;2;
55754;PMS5003;41674;52.290;-1.474;2023-04-16T16:10:29;2;2;
55754;PMS5003;41674;52.290;-1.474;2023-04-16T16:13:01;4;4;
55754;PMS5003;41674;52.290;-1.474;2023-04-16T16:42:55;3;1;
55754;PMS5003;41674;52.290;-1.474;2023-04-16T16:52:53;2;2;
55754;PMS5003;41674;52.290;-1.474;2023-04-16T17:15:23;1;1;
55754;PMS5003;41674;52.290;-1.474;2023-04-16T17:17:47;1;1;
55754;PMS5003;41674;52.290;-1.474;2023-04-16T17:22:51;1;1;
55754;PMS5003;41674;52.290;-1.474;2023-04-16T17:35:19;2;1;
55754;PMS5003;41674;52.290;-1.474;2023-04-16T17:37:45;2;2;
55754;PMS5003;41674;52.290;-1.474;2023-04-16T17:42:43;3;3;
55754;PMS5003;41674;52.290;-1.474;2023-04-16T18:05:09;3;2;
55754;PMS5003;41674;52.290;-1.474;2023-04-16T18:07:39;2;2;
55754;PMS5003;41674;52.290;-1.474;2023-04-16T18:10:11;4;2;
55754;PMS5003;41674;52.290;-1.474;2023-04-16T18:12:38;3;2;
55754;PMS5003;41674;52.290;-1.474;2023-04-16T18:15:11;6;4;
55754;PMS5003;41674;52.290;-1.474;2023-04-16T18:17:38;3;3;
55754;PMS5003;41674;52.290;-1.474;2023-04-16T18:20:07;9;9;